Time;durP1;ratioP1;P1;durP2;ratioP2;P2;SDS_P1;SDS_P2;PMS_P1;PMS_P2;Temp;Humidity;BMP_temperature;BMP_pressure;BME280_temperature;BME280_humidity;BME280_pressure;Samples;Min_cycle;Max_cycle;Signal;HPM_P1;HPM_P2
2022/01/13 00:00:07;;;;;;;164.90;32.95;;;;;;;;;;5081387;28;20040;-81
2022/01/13 00:02:35;;;;;;;186.65;35.75;;;;;;;;;;5064656;28;20431;-81
2022/01/13 00:05:01;;;;;;;203.90;38.70;;;;;;;;;;5085492;28;20044;-81
2022/01/13 00:07:28;;;;;;;196.43;38.08;;;;;;;;;;5085328;28;20056;-85
2022/01/13 00:09:54;;;;;;;207.02;39.92;;;;;;;;;;5100145;28;20055;-84
2022/01/13 00:12:22;;;;;;;173.15;35.55;;;;;;;;;;5086041;28;20479;-83
2022/01/13 00:15:09;;;;;;;182.13;34.55;;;;;;;;;;5084659;28;20040;-82
2022/01/13 00:26:16;;;;;;;95.85;22.95;;;;;;;;;;5067552;28;20054;-90
2022/01/13 00:28:45;;;;;;;116.32;25.83;;;;;;;;;;5091602;28;20109;-94
2022/01/13 00:31:11;;;;;;;129.80;25.42;;;;;;;;;;5070143;28;20085;-91
2022/01/13 00:33:44;;;;;;;97.07;25.83;;;;;;;;;;5074785;28;20070;-94
2022/01/13 00:36:10;;;;;;;95.00;25.92;;;;;;;;;;5086991;28;20047;-90
2022/01/13 00:38:37;;;;;;;98.85;24.77;;;;;;;;;;5072325;28;20055;-93
2022/01/13 00:41:03;;;;;;;100.22;23.70;;;;;;;;;;5070104;28;20036;-93
2022/01/13 00:43:29;;;;;;;77.45;22.67;;;;;;;;;;5072785;28;20032;-95
2022/01/13 00:46:02;;;;;;;83.05;23.60;;;;;;;;;;5069941;28;20051;-94
2022/01/13 00:48:28;;;;;;;94.00;23.52;;;;;;;;;;5073030;28;20044;-91
2022/01/13 00:50:59;;;;;;;93.50;25.25;;;;;;;;;;5069816;28;20035;-92
2022/01/13 00:53:25;;;;;;;106.97;26.50;;;;;;;;;;5072157;28;20142;-92
2022/01/13 00:55:58;;;;;;;96.63;25.73;;;;;;;;;;5067522;28;20480;-91
2022/01/13 00:58:27;;;;;;;84.55;24.88;;;;;;;;;;5068274;28;20043;-91
2022/01/13 01:00:53;;;;;;;117.88;27.52;;;;;;;;;;5069657;28;20542;-92
2022/01/13 01:03:22;;;;;;;101.13;27.48;;;;;;;;;;5070816;28;20121;-95
2022/01/13 01:05:51;;;;;;;100.97;28.40;;;;;;;;;;5071244;28;20036;-93
2022/01/13 01:08:19;;;;;;;104.10;29.90;;;;;;;;;;5057836;28;20056;-93
2022/01/13 01:11:00;;;;;;;;;;;;;;;;;;;;;
2022/01/13 01:13:34;;;;;;;105.18;30.25;;;;;;;;;;5086990;28;20094;-96
2022/01/13 01:16:06;;;;;;;110.65;29.95;;;;;;;;;;5055542;28;20052;-96
2022/01/13 01:26:42;;;;;;;112.00;31.10;;;;;;;;;;5087492;28;20048;-93
2022/01/13 01:35:15;;;;;;;113.28;28.65;;;;;;;;;;5042165;28;20053;-95
2022/01/13 01:37:42;;;;;;;124.82;30.30;;;;;;;;;;5074628;28;20064;-94
2022/01/13 01:40:34;;;;;;;123.55;29.02;;;;;;;;;;5092423;28;20103;-95
2022/01/13 01:43:06;;;;;;;123.13;29.95;;;;;;;;;;5057503;28;20043;-96
2022/01/13 01:50:05;;;;;;;133.40;31.70;;;;;;;;;;5068020;28;20091;-93
2022/01/13 01:52:25;;;;;;;145.77;31.80;;;;;;;;;;5035205;28;20045;-96
2022/01/13 01:54:54;;;;;;;125.05;29.95;;;;;;;;;;5027800;28;20093;-93
2022/01/13 01:57:25;;;;;;;136.95;31.92;;;;;;;;;;5058279;28;20048;-93
2022/01/13 02:00:01;;;;;;;;;;;;;;;;;;;;;
2022/01/13 02:02:42;;;;;;;116.93;30.15;;;;;;;;;;5088368;28;20052;-96
2022/01/13 02:05:09;;;;;;;124.65;30.85;;;;;;;;;;5085609;28;20078;-92
2022/01/13 02:07:38;;;;;;;114.18;30.90;;;;;;;;;;5067075;28;20051;-95
2022/01/13 02:10:14;;;;;;;126.97;30.65;;;;;;;;;;5057225;28;20044;-95
2022/01/13 02:13:12;;;;;;;129.80;31.58;;;;;;;;;;5059815;28;20052;-95
2022/01/13 02:15:46;;;;;;;121.47;30.17;;;;;;;;;;5090418;28;20063;-96
2022/01/13 02:18:12;;;;;;;119.57;30.58;;;;;;;;;;5076358;28;20050;-94
2022/01/13 02:24:07;;;;;;;111.82;29.75;;;;;;;;;;5107680;23;20053;-93
2022/01/13 02:26:36;;;;;;;121.43;29.90;;;;;;;;;;4993917;28;20050;-92
2022/01/13 02:32:06;;;;;;;126.50;30.67;;;;;;;;;;5003888;28;20064;-96
2022/01/13 02:34:35;;;;;;;116.50;30.30;;;;;;;;;;4972969;28;20516;-95
2022/01/13 02:37:07;;;;;;;109.68;29.92;;;;;;;;;;4961133;28;20046;-96
2022/01/13 02:39:33;;;;;;;102.00;29.90;;;;;;;;;;4966065;28;20044;-96
2022/01/13 02:42:03;;;;;;;97.25;29.52;;;;;;;;;;4982528;28;20477;-96
2022/01/13 02:44:35;;;;;;;115.63;29.95;;;;;;;;;;4983664;28;20481;-96
2022/01/13 03:52:17;;;;;;;176.88;32.90;;;;;;;;;;5102647;23;20051;-96
2022/01/13 03:55:11;;;;;;;180.20;35.75;;;;;;;;;;4919269;28;20050;-90
2022/01/13 03:58:12;;;;;;;180.38;33.60;;;;;;;;;;4922211;29;20055;-95
2022/01/13 04:00:59;;;;;;;243.30;37.80;;;;;;;;;;4915741;29;20472;-95
2022/01/13 04:03:37;;;;;;;219.25;36.75;;;;;;;;;;4925965;29;20051;-94
2022/01/13 04:06:12;;;;;;;244.40;38.67;;;;;;;;;;4926131;29;20047;-96
2022/01/13 04:09:10;;;;;;;211.05;36.22;;;;;;;;;;4921501;28;20048;-94
2022/01/13 04:11:46;;;;;;;;;;;;;;;;;;;;;
2022/01/13 04:17:26;;;;;;;287.30;41.80;;;;;;;;;;4916888;29;20063;-94
2022/01/13 04:23:00;;;;;;;286.80;41.65;;;;;;;;;;4912363;29;20114;-95
2022/01/13 04:25:31;;;;;;;273.00;41.03;;;;;;;;;;4927264;29;20216;-93
2022/01/13 04:28:03;;;;;;;253.27;40.17;;;;;;;;;;4896583;29;20068;-96
2022/01/13 04:33:59;;;;;;;234.15;37.67;;;;;;;;;;4950932;29;20074;-95
2022/01/13 04:36:33;;;;;;;268.25;39.80;;;;;;;;;;4916740;29;20142;-96
2022/01/13 04:39:02;;;;;;;214.68;38.08;;;;;;;;;;4913280;29;20067;-89
2022/01/13 04:41:36;;;;;;;252.50;40.85;;;;;;;;;;4909107;28;20403;-94
2022/01/13 04:44:09;;;;;;;263.38;40.60;;;;;;;;;;4914026;29;20043;-95
2022/01/13 04:46:48;;;;;;;278.37;40.17;;;;;;;;;;4928845;29;20387;-95
2022/01/13 04:49:22;;;;;;;259.48;38.47;;;;;;;;;;4919167;29;20370;-90
2022/01/13 04:51:48;;;;;;;;;;;;;;;;;;4914797;29;20051;-90
2022/01/13 04:54:18;;;;;;;282.13;38.42;;;;;;;;;;4912010;29;19923;-91
2022/01/13 04:57:04;;;;;;;289.15;39.25;;;;;;;;;;4910918;29;20063;-88
2022/01/13 04:59:36;;;;;;;270.17;39.85;;;;;;;;;;4930032;29;20551;-92
2022/01/13 05:02:08;;;;;;;294.67;40.83;;;;;;;;;;4917335;29;20182;-91
2022/01/13 05:04:42;;;;;;;227.02;36.63;;;;;;;;;;4911544;28;20111;-93
2022/01/13 05:07:08;;;;;;;291.95;39.85;;;;;;;;;;4913047;29;20135;-89
2022/01/13 05:09:45;;;;;;;250.98;37.83;;;;;;;;;;4918082;29;20058;-94
2022/01/13 05:12:11;;;;;;;310.73;39.38;;;;;;;;;;4927046;29;20055;-90
2022/01/13 05:14:45;;;;;;;321.77;39.30;;;;;;;;;;4931278;29;20050;-93
2022/01/13 05:17:33;;;;;;;290.45;39.65;;;;;;;;;;4937562;28;20054;-90
2022/01/13 05:20:15;;;;;;;284.83;39.90;;;;;;;;;;4929918;29;20043;-93
2022/01/13 05:23:09;;;;;;;296.25;37.95;;;;;;;;;;4910133;29;20049;-92
2022/01/13 05:25:44;;;;;;;293.45;38.78;;;;;;;;;;4894363;29;20043;-95
2022/01/13 05:28:11;;;;;;;390.00;41.42;;;;;;;;;;4892375;29;20052;-87
2022/01/13 05:30:40;;;;;;;373.23;43.08;;;;;;;;;;4897619;29;20095;-93
2022/01/13 05:33:12;;;;;;;306.25;39.42;;;;;;;;;;4911240;29;20051;-94
2022/01/13 05:36:14;;;;;;;;;;;;;;;;;;;;;
2022/01/13 05:38:46;;;;;;;280.92;39.50;;;;;;;;;;4914658;29;20059;-90
2022/01/13 05:41:13;;;;;;;328.20;43.42;;;;;;;;;;4901362;29;20035;-92
2022/01/13 05:43:39;;;;;;;287.55;41.10;;;;;;;;;;4908475;29;20108;-95
2022/01/13 05:46:05;;;;;;;351.45;44.00;;;;;;;;;;4891230;29;20058;-91
2022/01/13 05:48:31;;;;;;;318.52;41.85;;;;;;;;;;4894014;29;20176;-86
2022/01/13 05:50:58;;;;;;;331.08;43.78;;;;;;;;;;4891377;29;20055;-82
2022/01/13 05:53:24;;;;;;;332.77;47.30;;;;;;;;;;4896934;29;20059;-84
2022/01/13 05:55:50;;;;;;;271.33;42.22;;;;;;;;;;4921141;29;20058;-87
2022/01/13 05:58:17;;;;;;;286.40;42.10;;;;;;;;;;4906550;29;20160;-84
2022/01/13 06:00:43;;;;;;;295.75;44.47;;;;;;;;;;4909456;29;20047;-84
2022/01/13 06:03:10;;;;;;;340.05;46.63;;;;;;;;;;4901577;29;20130;-84
2022/01/13 06:06:02;;;;;;;352.77;48.63;;;;;;;;;;4918482;29;20043;-95
2022/01/13 06:08:39;;;;;;;283.55;43.90;;;;;;;;;;4925930;29;20058;-95
2022/01/13 06:11:36;;;;;;;241.27;41.25;;;;;;;;;;4919880;29;20050;-96
2022/01/13 06:14:02;;;;;;;;;;;;;;;;;;4915101;29;20044;-94
2022/01/13 06:16:28;;;;;;;292.92;43.97;;;;;;;;;;4911519;29;19951;-93
2022/01/13 06:18:55;;;;;;;256.80;44.83;;;;;;;;;;4919588;29;20050;-96
2022/01/13 06:21:29;;;;;;;266.55;44.30;;;;;;;;;;4923564;29;20720;-93
2022/01/13 06:23:59;;;;;;;296.55;45.42;;;;;;;;;;4908477;29;20055;-94
2022/01/13 06:26:27;;;;;;;272.60;43.95;;;;;;;;;;4910953;29;20054;-96
2022/01/13 06:28:53;;;;;;;287.85;44.05;;;;;;;;;;4906760;29;20051;-88
2022/01/13 06:31:19;;;;;;;252.32;42.90;;;;;;;;;;4911061;29;20095;-88
2022/01/13 06:33:46;;;;;;;292.33;45.65;;;;;;;;;;4926554;29;20135;-83
2022/01/13 06:36:12;;;;;;;261.23;45.45;;;;;;;;;;4905180;29;20395;-86
2022/01/13 06:38:38;;;;;;;306.73;45.95;;;;;;;;;;4903595;29;20050;-82
2022/01/13 06:41:04;;;;;;;280.23;46.00;;;;;;;;;;4894827;29;20054;-96
2022/01/13 06:43:31;;;;;;;395.75;51.15;;;;;;;;;;4917908;29;20030;-95
2022/01/13 06:45:57;;;;;;;328.05;48.25;;;;;;;;;;4911771;29;20075;-94
2022/01/13 06:48:23;;;;;;;290.02;47.13;;;;;;;;;;4908816;29;20376;-88
2022/01/13 06:50:52;;;;;;;307.35;48.25;;;;;;;;;;4893697;29;20054;-90
2022/01/13 06:53:20;;;;;;;313.42;48.60;;;;;;;;;;4909587;29;20518;-93
2022/01/13 06:55:46;;;;;;;357.15;50.58;;;;;;;;;;4897233;29;20052;-89
2022/01/13 06:58:33;;;;;;;335.77;49.45;;;;;;;;;;4930929;29;20043;-96
2022/01/13 07:00:59;;;;;;;306.45;48.50;;;;;;;;;;4917649;29;20040;-93
2022/01/13 07:03:28;;;;;;;315.08;49.55;;;;;;;;;;4918403;29;20129;-96
2022/01/13 07:05:54;;;;;;;331.90;51.17;;;;;;;;;;4921104;29;20102;-95
2022/01/13 07:08:21;;;;;;;347.27;51.55;;;;;;;;;;4917406;29;20082;-96
2022/01/13 07:10:47;;;;;;;352.60;50.35;;;;;;;;;;4918141;29;20135;-96
2022/01/13 07:13:13;;;;;;;338.83;50.47;;;;;;;;;;4922973;29;20047;-96
2022/01/13 07:15:39;;;;;;;349.83;50.33;;;;;;;;;;4902245;29;20069;-95
2022/01/13 07:18:05;;;;;;;294.08;48.80;;;;;;;;;;4922626;29;20082;-92
2022/01/13 07:20:32;;;;;;;313.70;49.00;;;;;;;;;;4918994;29;20043;-92
2022/01/13 07:22:58;;;;;;;329.85;47.75;;;;;;;;;;4911275;29;20047;-92
2022/01/13 07:25:24;;;;;;;285.33;47.10;;;;;;;;;;4910255;29;20039;-94
2022/01/13 07:27:50;;;;;;;321.33;49.53;;;;;;;;;;4904684;29;20386;-92
2022/01/13 07:30:19;;;;;;;285.10;45.65;;;;;;;;;;4917458;29;20063;-91
2022/01/13 07:32:45;;;;;;;267.48;46.58;;;;;;;;;;4932328;29;20126;-93
2022/01/13 07:35:12;;;;;;;290.75;48.33;;;;;;;;;;4921916;29;20077;-93
2022/01/13 07:37:39;;;;;;;280.83;44.85;;;;;;;;;;4922101;29;20546;-95
2022/01/13 07:40:05;;;;;;;251.30;46.63;;;;;;;;;;4915112;29;20047;-96
2022/01/13 07:42:35;;;;;;;314.40;48.65;;;;;;;;;;4922546;29;20027;-94
2022/01/13 07:45:01;;;;;;;261.50;45.85;;;;;;;;;;4918025;29;20043;-93
2022/01/13 07:47:27;;;;;;;276.85;47.63;;;;;;;;;;4909332;29;20048;-94
2022/01/13 07:49:56;;;;;;;300.63;49.00;;;;;;;;;;4934967;29;20051;-96
2022/01/13 07:52:25;;;;;;;251.85;45.15;;;;;;;;;;4921789;29;20058;-96
2022/01/13 07:54:57;;;;;;;264.42;47.90;;;;;;;;;;4915766;29;20055;-96
2022/01/13 07:57:24;;;;;;;269.42;45.42;;;;;;;;;;4923069;29;20113;-95
2022/01/13 07:59:52;;;;;;;225.75;43.53;;;;;;;;;;4921535;29;20047;-96
2022/01/13 08:02:19;;;;;;;257.35;45.30;;;;;;;;;;4931460;29;20051;-94
2022/01/13 08:04:45;;;;;;;230.57;43.70;;;;;;;;;;4921075;29;20491;-94
2022/01/13 08:07:17;;;;;;;219.65;42.97;;;;;;;;;;4920160;29;20110;-95
2022/01/13 08:09:51;;;;;;;238.00;43.55;;;;;;;;;;4919879;29;20035;-96
2022/01/13 08:12:17;;;;;;;243.40;45.72;;;;;;;;;;4921773;29;20058;-94
2022/01/13 08:14:44;;;;;;;208.38;43.30;;;;;;;;;;4921907;29;20055;-94
2022/01/13 08:17:19;;;;;;;231.75;41.97;;;;;;;;;;4923067;29;20130;-94
2022/01/13 08:19:45;;;;;;;218.75;41.13;;;;;;;;;;4938336;29;20055;-94
2022/01/13 08:22:19;;;;;;;238.82;43.85;;;;;;;;;;4918637;29;20059;-94
2022/01/13 08:24:45;;;;;;;229.60;42.20;;;;;;;;;;4917179;29;20139;-94
2022/01/13 08:27:11;;;;;;;227.13;44.75;;;;;;;;;;4921426;29;20067;-91
2022/01/13 08:29:40;;;;;;;256.52;43.42;;;;;;;;;;4917421;29;20052;-93
2022/01/13 08:32:07;;;;;;;218.18;41.83;;;;;;;;;;4921695;29;20049;-95
2022/01/13 08:34:33;;;;;;;232.50;41.95;;;;;;;;;;4904807;29;20081;-88
2022/01/13 08:36:59;;;;;;;267.60;45.33;;;;;;;;;;4911418;29;20047;-89
2022/01/13 08:39:25;;;;;;;237.05;44.03;;;;;;;;;;4919741;29;20078;-90
2022/01/13 08:41:54;;;;;;;241.05;41.67;;;;;;;;;;4932659;29;20050;-91
2022/01/13 08:44:23;;;;;;;229.10;43.13;;;;;;;;;;4907888;29;20055;-88
2022/01/13 08:46:49;;;;;;;233.02;44.58;;;;;;;;;;4925515;29;20102;-91
2022/01/13 08:49:15;;;;;;;223.25;42.40;;;;;;;;;;4925649;29;20055;-90
2022/01/13 08:51:42;;;;;;;240.93;45.83;;;;;;;;;;4925546;29;20110;-90
2022/01/13 08:54:11;;;;;;;232.35;45.30;;;;;;;;;;4912615;29;20059;-89
2022/01/13 08:56:39;;;;;;;265.00;46.03;;;;;;;;;;4917539;29;20055;-89
2022/01/13 08:59:06;;;;;;;237.65;43.67;;;;;;;;;;4916328;29;20051;-88
2022/01/13 09:01:32;;;;;;;238.95;46.03;;;;;;;;;;4923469;29;20101;-93
2022/01/13 09:04:24;;;;;;;220.45;43.63;;;;;;;;;;4916134;29;20055;-89
2022/01/13 09:06:50;;;;;;;220.73;43.65;;;;;;;;;;4919806;29;20495;-93
2022/01/13 09:09:17;;;;;;;228.23;43.97;;;;;;;;;;4913131;29;20083;-91
2022/01/13 09:11:44;;;;;;;231.65;43.88;;;;;;;;;;4900242;29;20071;-88
2022/01/13 09:14:13;;;;;;;230.38;46.80;;;;;;;;;;4919863;29;20123;-88
2022/01/13 09:16:46;;;;;;;242.40;46.55;;;;;;;;;;4901087;29;20130;-89
2022/01/13 09:19:17;;;;;;;259.02;48.40;;;;;;;;;;4920316;29;20105;-89
2022/01/13 09:21:45;;;;;;;209.30;42.05;;;;;;;;;;4921149;29;20040;-89
2022/01/13 09:24:13;;;;;;;243.82;46.78;;;;;;;;;;4917664;29;20115;-89
2022/01/13 09:26:39;;;;;;;217.40;45.63;;;;;;;;;;4917947;29;20132;-90
2022/01/13 09:29:06;;;;;;;214.23;45.47;;;;;;;;;;4915304;29;20059;-91
2022/01/13 09:31:34;;;;;;;228.60;46.17;;;;;;;;;;4910164;29;20048;-90
2022/01/13 09:34:04;;;;;;;243.80;47.08;;;;;;;;;;4914757;29;20059;-91
2022/01/13 09:36:31;;;;;;;228.35;48.25;;;;;;;;;;4911403;29;20044;-90
2022/01/13 09:39:06;;;;;;;218.15;46.88;;;;;;;;;;4909808;29;20130;-89
2022/01/13 09:41:37;;;;;;;199.65;46.17;;;;;;;;;;4907466;29;20129;-90
2022/01/13 09:44:04;;;;;;;209.38;46.55;;;;;;;;;;4932453;29;20506;-91
2022/01/13 09:46:31;;;;;;;204.77;46.78;;;;;;;;;;4930192;29;20531;-83
2022/01/13 09:49:02;;;;;;;193.75;44.95;;;;;;;;;;4933363;29;20050;-87
2022/01/13 09:51:28;;;;;;;206.90;46.67;;;;;;;;;;4934297;29;20106;-88
2022/01/13 09:53:54;;;;;;;205.38;48.50;;;;;;;;;;4933698;29;20059;-86
2022/01/13 09:56:21;;;;;;;203.65;47.33;;;;;;;;;;4920376;29;20403;-83
2022/01/13 09:58:47;;;;;;;189.02;46.30;;;;;;;;;;4939273;29;20123;-89
2022/01/13 10:01:14;;;;;;;177.77;43.78;;;;;;;;;;4920472;29;20460;-89
2022/01/13 10:03:40;;;;;;;179.48;45.13;;;;;;;;;;4913159;29;20047;-90
2022/01/13 10:06:10;;;;;;;184.30;45.75;;;;;;;;;;4927458;29;20076;-87
2022/01/13 10:08:47;;;;;;;188.15;46.67;;;;;;;;;;4935734;29;20043;-89
2022/01/13 10:11:25;;;;;;;181.75;46.58;;;;;;;;;;4953121;29;20070;-89
2022/01/13 10:16:54;;;;;;;176.52;47.65;;;;;;;;;;4889981;29;20047;-86
2022/01/13 10:19:33;;;;;;;177.98;44.28;;;;;;;;;;4928247;29;20057;-88
2022/01/13 10:22:02;;;;;;;194.05;47.58;;;;;;;;;;4934816;29;20070;-91
2022/01/13 10:24:29;;;;;;;179.60;46.67;;;;;;;;;;4912663;29;20047;-87
2022/01/13 10:27:00;;;;;;;181.60;47.95;;;;;;;;;;4917736;29;20118;-89
2022/01/13 10:29:37;;;;;;;182.68;47.63;;;;;;;;;;4935684;29;20051;-90
2022/01/13 10:32:03;;;;;;;167.80;47.00;;;;;;;;;;4929780;29;20110;-92
2022/01/13 10:34:32;;;;;;;175.82;46.97;;;;;;;;;;4923546;29;20048;-93
2022/01/13 10:37:03;;;;;;;171.88;46.03;;;;;;;;;;4932553;29;20369;-90
2022/01/13 10:39:49;;;;;;;153.27;44.47;;;;;;;;;;4937678;29;20087;-88
2022/01/13 10:42:44;;;;;;;152.88;44.55;;;;;;;;;;4917872;28;20047;-89
2022/01/13 10:45:01;;;;;;;156.98;45.75;;;;;;;;;;4925318;29;20051;-92
2022/01/13 10:47:28;;;;;;;150.27;45.83;;;;;;;;;;4914911;29;20040;-85
2022/01/13 10:49:59;;;;;;;139.82;42.97;;;;;;;;;;4912593;29;20054;-87
2022/01/13 10:52:26;;;;;;;144.20;44.70;;;;;;;;;;4918310;29;20043;-86
2022/01/13 10:55:13;;;;;;;162.63;47.45;;;;;;;;;;4938434;29;20063;-86
2022/01/13 10:57:43;;;;;;;139.18;45.25;;;;;;;;;;4914939;29;20051;-87
2022/01/13 11:00:20;;;;;;;133.02;43.85;;;;;;;;;;4945677;29;20079;-84
2022/01/13 11:03:14;;;;;;;129.57;43.45;;;;;;;;;;4951513;29;20051;-84
2022/01/13 11:05:49;;;;;;;139.13;44.63;;;;;;;;;;4926795;29;20058;-88
2022/01/13 11:08:43;;;;;;;125.55;42.97;;;;;;;;;;4939882;29;20070;-88
2022/01/13 11:11:17;;;;;;;133.98;44.47;;;;;;;;;;4921036;29;20051;-91
2022/01/13 11:13:43;;;;;;;;;;;;;;;;;;4924566;29;20083;-84
2022/01/13 11:16:09;;;;;;;126.70;43.28;;;;;;;;;;4931889;29;20358;-86
2022/01/13 11:18:35;;;;;;;119.95;41.95;;;;;;;;;;4938232;29;20214;-87
2022/01/13 11:21:02;;;;;;;112.15;42.05;;;;;;;;;;4940192;29;20054;-89
2022/01/13 11:23:28;;;;;;;104.30;40.33;;;;;;;;;;4914473;29;20054;-91
2022/01/13 11:25:55;;;;;;;107.90;39.80;;;;;;;;;;4920810;29;20055;-88
2022/01/13 11:28:22;;;;;;;109.05;40.33;;;;;;;;;;4919020;29;20047;-86
2022/01/13 11:30:50;;;;;;;116.82;40.35;;;;;;;;;;4917883;29;20051;-83
2022/01/13 11:33:17;;;;;;;113.38;41.72;;;;;;;;;;4919805;29;20147;-92
2022/01/13 11:35:52;;;;;;;119.63;41.50;;;;;;;;;;4932958;29;20101;-93
2022/01/13 11:38:19;;;;;;;113.30;40.40;;;;;;;;;;4935137;29;20055;-89
2022/01/13 11:40:46;;;;;;;110.45;39.88;;;;;;;;;;4917723;29;20043;-90
2022/01/13 11:43:21;;;;;;;106.75;40.28;;;;;;;;;;4922528;29;20498;-93
2022/01/13 11:45:47;;;;;;;123.55;42.13;;;;;;;;;;4929930;29;20063;-88
2022/01/13 11:48:14;;;;;;;113.38;40.65;;;;;;;;;;4933984;29;20088;-82
2022/01/13 11:50:47;;;;;;;122.75;43.60;;;;;;;;;;4937625;29;20047;-86
2022/01/13 11:53:24;;;;;;;121.65;40.25;;;;;;;;;;4905163;29;20059;-82
2022/01/13 11:55:51;;;;;;;142.57;42.15;;;;;;;;;;4912307;29;20051;-90
2022/01/13 11:58:19;;;;;;;102.40;39.22;;;;;;;;;;4910364;29;20202;-90
2022/01/13 12:01:08;;;;;;;96.45;39.10;;;;;;;;;;4947668;29;20407;-95
2022/01/13 12:03:35;;;;;;;92.75;37.92;;;;;;;;;;4914641;29;20064;-87
2022/01/13 12:06:02;;;;;;;76.65;37.45;;;;;;;;;;4936263;29;20135;-82
2022/01/13 12:08:40;;;;;;;76.45;37.22;;;;;;;;;;4918731;29;20046;-87
2022/01/13 12:11:07;;;;;;;70.15;34.92;;;;;;;;;;4933755;29;20051;-76
2022/01/13 12:13:35;;;;;;;70.50;33.35;;;;;;;;;;4933587;29;20375;-83
2022/01/13 12:16:02;;;;;;;67.25;32.60;;;;;;;;;;4918607;29;20055;-86
2022/01/13 12:18:44;;;;;;;73.10;35.20;;;;;;;;;;4903537;29;20058;-80
2022/01/13 12:21:27;;;;;;;77.20;34.17;;;;;;;;;;4931373;29;20051;-93
2022/01/13 12:23:53;;;;;;;72.10;33.90;;;;;;;;;;4915109;29;20043;-79
2022/01/13 12:26:31;;;;;;;71.68;33.15;;;;;;;;;;4916666;29;20035;-79
2022/01/13 12:29:30;;;;;;;71.55;33.67;;;;;;;;;;4915103;29;20047;-79
2022/01/13 12:31:58;;;;;;;83.35;34.90;;;;;;;;;;4908839;29;20051;-81
2022/01/13 12:34:33;;;;;;;75.97;34.38;;;;;;;;;;4915116;29;20042;-82
2022/01/13 12:36:59;;;;;;;83.45;35.47;;;;;;;;;;4929035;29;20066;-90
2022/01/13 12:39:27;;;;;;;70.15;36.42;;;;;;;;;;4917176;29;20387;-87
2022/01/13 12:41:57;;;;;;;72.50;34.42;;;;;;;;;;4911949;29;20050;-85
2022/01/13 12:45:28;;;;;;;74.25;33.40;;;;;;;;;;4935299;29;20039;-82
2022/01/13 12:47:10;;;;;;;65.90;32.58;;;;;;;;;;4912702;29;20187;-85
2022/01/13 12:49:36;;;;;;;68.90;32.72;;;;;;;;;;4901331;29;20075;-85
2022/01/13 12:52:03;;;;;;;61.45;32.67;;;;;;;;;;4900632;29;20035;-83
2022/01/13 12:54:29;;;;;;;64.38;32.83;;;;;;;;;;4929076;29;20048;-88
2022/01/13 12:56:55;;;;;;;67.97;31.63;;;;;;;;;;4903184;29;20057;-86
2022/01/13 12:59:23;;;;;;;70.82;32.72;;;;;;;;;;4933795;29;20103;-92
2022/01/13 13:01:49;;;;;;;60.05;30.92;;;;;;;;;;4923784;29;20074;-88
2022/01/13 13:04:15;;;;;;;62.30;31.85;;;;;;;;;;4914220;29;20047;-87
2022/01/13 13:06:43;;;;;;;60.55;30.75;;;;;;;;;;4917703;29;20130;-81
2022/01/13 13:09:12;;;;;;;54.05;29.73;;;;;;;;;;4914546;29;20079;-85
2022/01/13 13:11:46;;;;;;;51.35;29.52;;;;;;;;;;4917487;29;20043;-90
2022/01/13 13:14:18;;;;;;;;;;;;;;;;;;4933247;29;20300;-89
2022/01/13 13:16:45;;;;;;;55.47;27.02;;;;;;;;;;4940979;29;19918;-88
2022/01/13 13:19:11;;;;;;;52.38;25.60;;;;;;;;;;4924728;29;20040;-92
2022/01/13 13:21:37;;;;;;;45.85;24.70;;;;;;;;;;4912782;29;20150;-92
2022/01/13 13:24:04;;;;;;;41.60;23.75;;;;;;;;;;4912448;29;20048;-89
2022/01/13 13:26:30;;;;;;;49.58;22.50;;;;;;;;;;4911571;29;20039;-82
2022/01/13 13:28:56;;;;;;;43.88;23.38;;;;;;;;;;4928931;29;20044;-82
2022/01/13 13:31:23;;;;;;;42.63;24.23;;;;;;;;;;4918312;29;20051;-85
2022/01/13 13:33:52;;;;;;;42.08;22.58;;;;;;;;;;4916275;29;20039;-82
2022/01/13 13:36:23;;;;;;;43.95;22.70;;;;;;;;;;4912537;29;20054;-83
2022/01/13 13:39:04;;;;;;;51.72;23.88;;;;;;;;;;4917593;29;20043;-86
2022/01/13 13:41:32;;;;;;;37.85;21.65;;;;;;;;;;4908938;29;20511;-84
2022/01/13 13:43:58;;;;;;;44.90;21.83;;;;;;;;;;4914717;29;20051;-83
2022/01/13 13:46:25;;;;;;;50.10;23.27;;;;;;;;;;4913221;29;20087;-86
2022/01/13 13:48:51;;;;;;;44.22;22.48;;;;;;;;;;4916362;29;20085;-87
2022/01/13 13:51:21;;;;;;;43.35;21.77;;;;;;;;;;4907005;29;20467;-87
2022/01/13 13:54:07;;;;;;;45.35;21.75;;;;;;;;;;4919717;29;20517;-88
2022/01/13 13:57:01;;;;;;;45.67;21.90;;;;;;;;;;4904681;29;20039;-86
2022/01/13 13:59:28;;;;;;;47.25;22.45;;;;;;;;;;4930229;29;20050;-85
2022/01/13 14:02:07;;;;;;;50.42;22.92;;;;;;;;;;4931565;29;20130;-87
2022/01/13 14:04:41;;;;;;;42.92;22.25;;;;;;;;;;4931843;29;20039;-85
2022/01/13 14:07:27;;;;;;;36.35;19.42;;;;;;;;;;4913202;29;21604;-86
2022/01/13 14:09:58;;;;;;;46.17;20.33;;;;;;;;;;4934404;29;20048;-84
2022/01/13 14:12:35;;;;;;;44.22;20.13;;;;;;;;;;4911412;29;20106;-91
2022/01/13 14:15:32;;;;;;;44.42;20.23;;;;;;;;;;4930478;29;20051;-94
2022/01/13 14:18:14;;;;;;;46.70;19.98;;;;;;;;;;4906563;29;20139;-81
2022/01/13 14:20:40;;;;;;;38.72;19.45;;;;;;;;;;4917153;28;20039;-90
2022/01/13 14:23:10;;;;;;;38.53;19.85;;;;;;;;;;4920675;29;20134;-92
2022/01/13 14:25:40;;;;;;;38.58;19.45;;;;;;;;;;4934276;29;20379;-81
2022/01/13 14:28:07;;;;;;;34.30;19.35;;;;;;;;;;4931960;29;20055;-81
2022/01/13 14:30:35;;;;;;;42.72;19.98;;;;;;;;;;4915376;29;20042;-81
2022/01/13 14:33:14;;;;;;;38.10;19.05;;;;;;;;;;4912531;29;20062;-81
2022/01/13 14:35:40;;;;;;;47.42;19.48;;;;;;;;;;4922105;29;20488;-81
2022/01/13 14:38:10;;;;;;;34.28;16.80;;;;;;;;;;4898561;29;20468;-89
2022/01/13 14:40:47;;;;;;;41.03;17.40;;;;;;;;;;4911698;29;20039;-80
2022/01/13 14:43:21;;;;;;;36.25;17.17;;;;;;;;;;4931431;29;20491;-78
2022/01/13 14:45:48;;;;;;;42.60;17.77;;;;;;;;;;4934583;29;20135;-79
2022/01/13 14:48:14;;;;;;;44.03;17.77;;;;;;;;;;4917540;29;20047;-79
2022/01/13 14:50:40;;;;;;;47.03;17.58;;;;;;;;;;4918405;29;20039;-89
2022/01/13 14:53:07;;;;;;;35.60;16.98;;;;;;;;;;4905595;29;20055;-84
2022/01/13 14:55:33;;;;;;;42.00;17.83;;;;;;;;;;4916937;29;20046;-77
2022/01/13 14:57:59;;;;;;;39.67;15.70;;;;;;;;;;4927841;29;20042;-79
2022/01/13 15:00:25;;;;;;;40.95;15.45;;;;;;;;;;4901260;29;20046;-79
2022/01/13 15:02:51;;;;;;;39.20;14.57;;;;;;;;;;4932124;29;20087;-79
2022/01/13 15:05:18;;;;;;;35.13;16.23;;;;;;;;;;4928214;29;20053;-79
2022/01/13 15:07:45;;;;;;;43.80;14.82;;;;;;;;;;4901770;29;20156;-81
2022/01/13 15:10:11;;;;;;;28.70;14.82;;;;;;;;;;4930213;29;20048;-80
2022/01/13 15:12:37;;;;;;;45.05;16.58;;;;;;;;;;4919677;29;20403;-78
2022/01/13 15:15:03;;;;;;;34.33;14.25;;;;;;;;;;4920175;29;20054;-78
2022/01/13 15:17:29;;;;;;;43.05;15.40;;;;;;;;;;4930528;29;20035;-78
2022/01/13 15:19:55;;;;;;;39.22;14.73;;;;;;;;;;4918125;29;20090;-79
2022/01/13 15:22:22;;;;;;;34.03;14.88;;;;;;;;;;4919472;29;20043;-79
2022/01/13 15:24:48;;;;;;;38.65;14.00;;;;;;;;;;4900806;29;20463;-77
2022/01/13 15:27:14;;;;;;;35.75;13.68;;;;;;;;;;4897350;29;20061;-78
2022/01/13 15:29:40;;;;;;;33.35;13.88;;;;;;;;;;4930264;29;20118;-75
2022/01/13 15:32:06;;;;;;;35.47;13.60;;;;;;;;;;4914630;29;20415;-77
2022/01/13 15:34:33;;;;;;;42.08;12.63;;;;;;;;;;4929338;29;20043;-77
2022/01/13 15:36:59;;;;;;;37.13;13.10;;;;;;;;;;4929991;29;20103;-78
2022/01/13 15:39:25;;;;;;;34.47;12.50;;;;;;;;;;4916625;28;20082;-79
2022/01/13 15:41:51;;;;;;;32.97;13.00;;;;;;;;;;4916237;29;20051;-78
2022/01/13 15:44:17;;;;;;;34.00;13.18;;;;;;;;;;4914681;29;20090;-79
2022/01/13 15:46:43;;;;;;;37.63;13.52;;;;;;;;;;4915140;29;20070;-80
2022/01/13 15:49:09;;;;;;;39.13;14.10;;;;;;;;;;4930262;29;20138;-75
2022/01/13 15:51:36;;;;;;;38.58;13.25;;;;;;;;;;4927973;29;20056;-78
2022/01/13 15:54:02;;;;;;;35.97;13.45;;;;;;;;;;4899565;29;20087;-79
2022/01/13 15:56:28;;;;;;;33.90;12.15;;;;;;;;;;4931283;29;20058;-77
2022/01/13 15:58:54;;;;;;;37.92;11.80;;;;;;;;;;4924379;29;20048;-78
2022/01/13 16:01:21;;;;;;;29.38;11.15;;;;;;;;;;4913683;29;20101;-78
2022/01/13 16:03:47;;;;;;;37.30;11.60;;;;;;;;;;4919537;29;20526;-78
2022/01/13 16:06:13;;;;;;;36.65;10.82;;;;;;;;;;4935123;29;20051;-78
2022/01/13 16:08:39;;;;;;;28.35;10.95;;;;;;;;;;4911774;29;20051;-77
2022/01/13 16:11:08;;;;;;;31.58;9.70;;;;;;;;;;4918234;29;20420;-75
2022/01/13 16:13:37;;;;;;;30.63;11.07;;;;;;;;;;4914837;29;20170;-73
2022/01/13 16:16:03;;;;;;;32.67;9.75;;;;;;;;;;4914803;29;20043;-75
2022/01/13 16:18:29;;;;;;;31.13;10.50;;;;;;;;;;4930496;29;20411;-76
2022/01/13 16:20:55;;;;;;;44.85;10.32;;;;;;;;;;4927949;29;20083;-76
2022/01/13 16:23:21;;;;;;;29.15;9.27;;;;;;;;;;4948917;29;20051;-75